sensor_id;sensor_type;location;lat;lon;timestamp;P1;durP1;ratioP1;P2;durP2;ratioP2
12798;SDS011;19250;42.646;26.980;2022-08-06T00:02:03;13.17;;;12.07;;
12798;SDS011;19250;42.646;26.980;2022-08-06T00:04:31;13.35;;;12.15;;
12798;SDS011;19250;42.646;26.980;2022-08-06T00:06:58;12.80;;;11.73;;
12798;SDS011;19250;42.646;26.980;2022-08-06T00:09:26;13.23;;;12.03;;
12798;SDS011;19250;42.646;26.980;2022-08-06T00:11:56;12.93;;;11.85;;
12798;SDS011;19250;42.646;26.980;2022-08-06T00:14:24;13.20;;;11.90;;
12798;SDS011;19250;42.646;26.980;2022-08-06T00:16:53;13.45;;;12.30;;
12798;SDS011;19250;42.646;26.980;2022-08-06T00:19:20;13.17;;;11.97;;
12798;SDS011;19250;42.646;26.980;2022-08-06T00:21:48;13.23;;;11.90;;
12798;SDS011;19250;42.646;26.980;2022-08-06T00:24:16;13.30;;;12.13;;
12798;SDS011;19250;42.646;26.980;2022-08-06T00:26:43;13.23;;;11.88;;
12798;SDS011;19250;42.646;26.980;2022-08-06T00:29:11;12.95;;;11.85;;
12798;SDS011;19250;42.646;26.980;2022-08-06T00:31:38;13.05;;;11.77;;
12798;SDS011;19250;42.646;26.980;2022-08-06T00:34:07;12.63;;;11.52;;
12798;SDS011;19250;42.646;26.980;2022-08-06T00:36:34;12.43;;;11.33;;
12798;SDS011;19250;42.646;26.980;2022-08-06T00:39:03;12.90;;;11.77;;
12798;SDS011;19250;42.646;26.980;2022-08-06T00:41:32;12.67;;;11.47;;
12798;SDS011;19250;42.646;26.980;2022-08-06T00:44:00;12.70;;;11.65;;
12798;SDS011;19250;42.646;26.980;2022-08-06T00:46:28;13.00;;;11.90;;
12798;SDS011;19250;42.646;26.980;2022-08-06T00:48:55;13.47;;;12.20;;
12798;SDS011;19250;42.646;26.980;2022-08-06T00:51:24;12.40;;;11.20;;
12798;SDS011;19250;42.646;26.980;2022-08-06T00:53:51;13.10;;;12.00;;
12798;SDS011;19250;42.646;26.980;2022-08-06T00:56:19;12.60;;;11.50;;
12798;SDS011;19250;42.646;26.980;2022-08-06T00:58:46;12.27;;;10.98;;
12798;SDS011;19250;42.646;26.980;2022-08-06T01:01:13;12.95;;;11.77;;
12798;SDS011;19250;42.646;26.980;2022-08-06T01:03:41;12.83;;;11.53;;
12798;SDS011;19250;42.646;26.980;2022-08-06T01:06:08;12.55;;;11.45;;
12798;SDS011;19250;42.646;26.980;2022-08-06T01:08:37;12.43;;;11.43;;
12798;SDS011;19250;42.646;26.980;2022-08-06T01:11:05;12.30;;;11.40;;
12798;SDS011;19250;42.646;26.980;2022-08-06T01:13:32;12.00;;;10.95;;
12798;SDS011;19250;42.646;26.980;2022-08-06T01:16:03;12.23;;;11.13;;
12798;SDS011;19250;42.646;26.980;2022-08-06T01:18:38;13.00;;;11.80;;
12798;SDS011;19250;42.646;26.980;2022-08-06T01:21:20;12.07;;;11.07;;
12798;SDS011;19250;42.646;26.980;2022-08-06T01:27:25;12.80;;;11.60;;
12798;SDS011;19250;42.646;26.980;2022-08-06T01:30:03;12.40;;;11.20;;
12798;SDS011;19250;42.646;26.980;2022-08-06T01:32:34;11.82;;;10.82;;
12798;SDS011;19250;42.646;26.980;2022-08-06T01:35:05;12.18;;;11.05;;
12798;SDS011;19250;42.646;26.980;2022-08-06T01:37:37;12.65;;;11.50;;
12798;SDS011;19250;42.646;26.980;2022-08-06T01:40:08;12.88;;;11.77;;
12798;SDS011;19250;42.646;26.980;2022-08-06T01:42:41;12.18;;;11.07;;
12798;SDS011;19250;42.646;26.980;2022-08-06T01:45:12;12.60;;;11.40;;
12798;SDS011;19250;42.646;26.980;2022-08-06T01:47:42;12.23;;;11.13;;
12798;SDS011;19250;42.646;26.980;2022-08-06T01:50:13;12.60;;;11.40;;
12798;SDS011;19250;42.646;26.980;2022-08-06T01:52:44;12.60;;;11.40;;
12798;SDS011;19250;42.646;26.980;2022-08-06T01:55:12;12.98;;;11.77;;
12798;SDS011;19250;42.646;26.980;2022-08-06T01:57:46;12.43;;;11.20;;
12798;SDS011;19250;42.646;26.980;2022-08-06T02:00:18;12.52;;;11.32;;
12798;SDS011;19250;42.646;26.980;2022-08-06T02:02:45;12.15;;;11.15;;
12798;SDS011;19250;42.646;26.980;2022-08-06T02:05:15;12.20;;;11.20;;
12798;SDS011;19250;42.646;26.980;2022-08-06T02:07:46;11.80;;;10.70;;
12798;SDS011;19250;42.646;26.980;2022-08-06T02:10:17;12.20;;;10.90;;
12798;SDS011;19250;42.646;26.980;2022-08-06T02:12:49;11.63;;;10.63;;
12798;SDS011;19250;42.646;26.980;2022-08-06T02:15:18;12.02;;;11.02;;
12798;SDS011;19250;42.646;26.980;2022-08-06T02:17:50;11.15;;;10.00;;
12798;SDS011;19250;42.646;26.980;2022-08-06T02:20:19;12.02;;;10.82;;
12798;SDS011;19250;42.646;26.980;2022-08-06T02:22:52;12.38;;;11.38;;
12798;SDS011;19250;42.646;26.980;2022-08-06T02:25:22;12.00;;;10.80;;
12798;SDS011;19250;42.646;26.980;2022-08-06T02:27:52;12.80;;;11.50;;
12798;SDS011;19250;42.646;26.980;2022-08-06T02:30:21;11.15;;;10.15;;
12798;SDS011;19250;42.646;26.980;2022-08-06T02:32:51;12.27;;;11.18;;
12798;SDS011;19250;42.646;26.980;2022-08-06T02:35:18;11.68;;;10.68;;
12798;SDS011;19250;42.646;26.980;2022-08-06T02:37:46;11.75;;;10.50;;
12798;SDS011;19250;42.646;26.980;2022-08-06T02:40:21;11.85;;;10.75;;
12798;SDS011;19250;42.646;26.980;2022-08-06T02:42:54;11.88;;;10.77;;
12798;SDS011;19250;42.646;26.980;2022-08-06T02:45:28;11.77;;;10.77;;
12798;SDS011;19250;42.646;26.980;2022-08-06T02:48:02;12.27;;;11.07;;
12798;SDS011;19250;42.646;26.980;2022-08-06T02:50:37;11.35;;;10.35;;
12798;SDS011;19250;42.646;26.980;2022-08-06T02:53:10;12.02;;;10.73;;
12798;SDS011;19250;42.646;26.980;2022-08-06T02:55:41;11.45;;;10.43;;
12798;SDS011;19250;42.646;26.980;2022-08-06T02:58:15;11.67;;;10.53;;
12798;SDS011;19250;42.646;26.980;2022-08-06T03:00:47;11.27;;;10.38;;
12798;SDS011;19250;42.646;26.980;2022-08-06T03:03:17;11.18;;;10.18;;
12798;SDS011;19250;42.646;26.980;2022-08-06T03:05:47;11.80;;;10.80;;
12798;SDS011;19250;42.646;26.980;2022-08-06T03:08:18;11.55;;;10.45;;
12798;SDS011;19250;42.646;26.980;2022-08-06T03:10:51;11.45;;;10.45;;
12798;SDS011;19250;42.646;26.980;2022-08-06T03:13:22;11.57;;;10.37;;
12798;SDS011;19250;42.646;26.980;2022-08-06T03:15:50;12.80;;;11.10;;
12798;SDS011;19250;42.646;26.980;2022-08-06T03:18:20;11.57;;;10.45;;
12798;SDS011;19250;42.646;26.980;2022-08-06T03:20:49;11.40;;;10.40;;
12798;SDS011;19250;42.646;26.980;2022-08-06T03:23:17;11.90;;;10.80;;
12798;SDS011;19250;42.646;26.980;2022-08-06T03:25:46;12.00;;;10.88;;
12798;SDS011;19250;42.646;26.980;2022-08-06T03:28:15;11.07;;;10.07;;
12798;SDS011;19250;42.646;26.980;2022-08-06T03:30:45;11.10;;;10.10;;
12798;SDS011;19250;42.646;26.980;2022-08-06T03:33:13;11.18;;;10.07;;
12798;SDS011;19250;42.646;26.980;2022-08-06T03:35:42;10.70;;;9.73;;
12798;SDS011;19250;42.646;26.980;2022-08-06T03:38:11;10.40;;;9.40;;
12798;SDS011;19250;42.646;26.980;2022-08-06T03:40:41;10.85;;;9.75;;
12798;SDS011;19250;42.646;26.980;2022-08-06T03:43:10;10.70;;;9.70;;
12798;SDS011;19250;42.646;26.980;2022-08-06T03:45:38;10.23;;;9.35;;
12798;SDS011;19250;42.646;26.980;2022-08-06T03:48:20;11.18;;;9.95;;
12798;SDS011;19250;42.646;26.980;2022-08-06T03:50:51;10.95;;;9.88;;
12798;SDS011;19250;42.646;26.980;2022-08-06T03:53:22;29.80;;;26.80;;
12798;SDS011;19250;42.646;26.980;2022-08-06T03:55:52;18.67;;;16.88;;
12798;SDS011;19250;42.646;26.980;2022-08-06T03:58:22;11.07;;;9.95;;
12798;SDS011;19250;42.646;26.980;2022-08-06T04:00:53;11.38;;;10.07;;
12798;SDS011;19250;42.646;26.980;2022-08-06T04:03:28;11.13;;;10.03;;
12798;SDS011;19250;42.646;26.980;2022-08-06T04:05:55;10.90;;;9.90;;
12798;SDS011;19250;42.646;26.980;2022-08-06T04:08:24;11.27;;;10.15;;
12798;SDS011;19250;42.646;26.980;2022-08-06T04:10:52;10.80;;;9.73;;
12798;SDS011;19250;42.646;26.980;2022-08-06T04:13:20;10.85;;;9.93;;
12798;SDS011;19250;42.646;26.980;2022-08-06T04:15:49;12.38;;;10.07;;
12798;SDS011;19250;42.646;26.980;2022-08-06T04:18:19;10.40;;;9.50;;
12798;SDS011;19250;42.646;26.980;2022-08-06T04:20:51;10.95;;;9.95;;
12798;SDS011;19250;42.646;26.980;2022-08-06T04:23:20;10.40;;;9.50;;
12798;SDS011;19250;42.646;26.980;2022-08-06T04:25:49;11.65;;;10.57;;
12798;SDS011;19250;42.646;26.980;2022-08-06T04:28:20;10.57;;;9.77;;
12798;SDS011;19250;42.646;26.980;2022-08-06T04:30:50;10.80;;;9.80;;
12798;SDS011;19250;42.646;26.980;2022-08-06T04:33:19;10.27;;;9.37;;
12798;SDS011;19250;42.646;26.980;2022-08-06T04:35:48;10.30;;;9.40;;
12798;SDS011;19250;42.646;26.980;2022-08-06T04:38:19;9.35;;;8.65;;
12798;SDS011;19250;42.646;26.980;2022-08-06T04:40:48;10.18;;;9.27;;
12798;SDS011;19250;42.646;26.980;2022-08-06T04:43:18;12.70;;;9.83;;
12798;SDS011;19250;42.646;26.980;2022-08-06T04:45:46;9.75;;;8.95;;
12798;SDS011;19250;42.646;26.980;2022-08-06T04:48:15;10.20;;;9.30;;
12798;SDS011;19250;42.646;26.980;2022-08-06T04:50:43;15.00;;;13.70;;
12798;SDS011;19250;42.646;26.980;2022-08-06T04:53:11;13.32;;;12.13;;
12798;SDS011;19250;42.646;26.980;2022-08-06T04:55:42;10.60;;;9.60;;
12798;SDS011;19250;42.646;26.980;2022-08-06T04:58:10;10.35;;;9.45;;
12798;SDS011;19250;42.646;26.980;2022-08-06T05:00:39;10.18;;;9.10;;
12798;SDS011;19250;42.646;26.980;2022-08-06T05:03:08;10.00;;;9.00;;
12798;SDS011;19250;42.646;26.980;2022-08-06T05:05:37;9.90;;;9.10;;
12798;SDS011;19250;42.646;26.980;2022-08-06T05:08:06;9.83;;;8.70;;
12798;SDS011;19250;42.646;26.980;2022-08-06T05:10:37;10.43;;;9.50;;
12798;SDS011;19250;42.646;26.980;2022-08-06T05:13:09;9.60;;;8.70;;
12798;SDS011;19250;42.646;26.980;2022-08-06T05:15:40;9.65;;;8.80;;
12798;SDS011;19250;42.646;26.980;2022-08-06T05:18:12;10.43;;;9.30;;
12798;SDS011;19250;42.646;26.980;2022-08-06T05:20:44;9.73;;;8.70;;
12798;SDS011;19250;42.646;26.980;2022-08-06T05:23:17;9.97;;;9.07;;
12798;SDS011;19250;42.646;26.980;2022-08-06T05:25:59;10.20;;;8.90;;
12798;SDS011;19250;42.646;26.980;2022-08-06T05:28:27;10.02;;;9.20;;
12798;SDS011;19250;42.646;26.980;2022-08-06T05:30:55;10.40;;;9.40;;
12798;SDS011;19250;42.646;26.980;2022-08-06T05:33:23;9.68;;;8.68;;
12798;SDS011;19250;42.646;26.980;2022-08-06T05:35:51;10.27;;;9.35;;
12798;SDS011;19250;42.646;26.980;2022-08-06T05:38:18;9.60;;;8.80;;
12798;SDS011;19250;42.646;26.980;2022-08-06T05:40:45;9.70;;;8.80;;
12798;SDS011;19250;42.646;26.980;2022-08-06T05:43:13;10.80;;;9.20;;
12798;SDS011;19250;42.646;26.980;2022-08-06T05:45:42;10.07;;;9.10;;
12798;SDS011;19250;42.646;26.980;2022-08-06T05:48:11;9.50;;;8.50;;
12798;SDS011;19250;42.646;26.980;2022-08-06T05:50:44;9.88;;;9.07;;
12798;SDS011;19250;42.646;26.980;2022-08-06T05:53:16;9.00;;;8.20;;
12798;SDS011;19250;42.646;26.980;2022-08-06T05:55:49;9.53;;;8.70;;
12798;SDS011;19250;42.646;26.980;2022-08-06T05:58:23;8.70;;;8.00;;
12798;SDS011;19250;42.646;26.980;2022-08-06T06:00:56;9.17;;;8.30;;
12798;SDS011;19250;42.646;26.980;2022-08-06T06:03:26;8.75;;;8.05;;
12798;SDS011;19250;42.646;26.980;2022-08-06T06:05:55;8.80;;;8.15;;
12798;SDS011;19250;42.646;26.980;2022-08-06T06:08:24;9.82;;;8.75;;
12798;SDS011;19250;42.646;26.980;2022-08-06T06:10:52;9.53;;;8.53;;
12798;SDS011;19250;42.646;26.980;2022-08-06T06:13:21;9.23;;;8.52;;
12798;SDS011;19250;42.646;26.980;2022-08-06T06:15:50;9.00;;;8.20;;
12798;SDS011;19250;42.646;26.980;2022-08-06T06:18:27;9.43;;;8.55;;
12798;SDS011;19250;42.646;26.980;2022-08-06T06:21:04;9.30;;;8.50;;
12798;SDS011;19250;42.646;26.980;2022-08-06T06:23:48;8.73;;;8.02;;
12798;SDS011;19250;42.646;26.980;2022-08-06T06:26:21;9.77;;;8.77;;
12798;SDS011;19250;42.646;26.980;2022-08-06T06:28:55;9.13;;;8.32;;
12798;SDS011;19250;42.646;26.980;2022-08-06T06:31:30;8.13;;;7.43;;
12798;SDS011;19250;42.646;26.980;2022-08-06T06:34:08;8.85;;;8.10;;
12798;SDS011;19250;42.646;26.980;2022-08-06T06:36:41;8.85;;;7.97;;
12798;SDS011;19250;42.646;26.980;2022-08-06T06:39:17;8.20;;;7.50;;
12798;SDS011;19250;42.646;26.980;2022-08-06T06:41:51;10.15;;;8.40;;
12798;SDS011;19250;42.646;26.980;2022-08-06T06:44:24;8.52;;;7.72;;
12798;SDS011;19250;42.646;26.980;2022-08-06T06:47:00;8.27;;;7.50;;
12798;SDS011;19250;42.646;26.980;2022-08-06T06:49:37;8.63;;;7.80;;
12798;SDS011;19250;42.646;26.980;2022-08-06T06:52:10;8.57;;;7.78;;
12798;SDS011;19250;42.646;26.980;2022-08-06T06:54:44;9.65;;;8.73;;
12798;SDS011;19250;42.646;26.980;2022-08-06T06:57:14;8.73;;;7.72;;
12798;SDS011;19250;42.646;26.980;2022-08-06T06:59:46;8.40;;;7.68;;
12798;SDS011;19250;42.646;26.980;2022-08-06T07:02:19;7.68;;;7.10;;
12798;SDS011;19250;42.646;26.980;2022-08-06T07:04:51;7.30;;;6.70;;
12798;SDS011;19250;42.646;26.980;2022-08-06T07:07:21;8.13;;;7.10;;
12798;SDS011;19250;42.646;26.980;2022-08-06T07:09:50;7.25;;;6.57;;
12798;SDS011;19250;42.646;26.980;2022-08-06T07:12:20;7.30;;;6.68;;
12798;SDS011;19250;42.646;26.980;2022-08-06T07:14:50;7.30;;;6.60;;
12798;SDS011;19250;42.646;26.980;2022-08-06T07:17:20;6.80;;;6.30;;
12798;SDS011;19250;42.646;26.980;2022-08-06T07:19:52;6.43;;;5.93;;
12798;SDS011;19250;42.646;26.980;2022-08-06T07:22:23;7.07;;;6.47;;
12798;SDS011;19250;42.646;26.980;2022-08-06T07:24:53;6.85;;;6.30;;
12798;SDS011;19250;42.646;26.980;2022-08-06T07:27:24;6.97;;;6.47;;
12798;SDS011;19250;42.646;26.980;2022-08-06T07:29:55;7.22;;;6.47;;
12798;SDS011;19250;42.646;26.980;2022-08-06T07:32:24;7.67;;;6.97;;
12798;SDS011;19250;42.646;26.980;2022-08-06T07:34:54;7.13;;;6.30;;
12798;SDS011;19250;42.646;26.980;2022-08-06T07:37:22;7.47;;;6.18;;
12798;SDS011;19250;42.646;26.980;2022-08-06T07:39:52;6.70;;;6.03;;
12798;SDS011;19250;42.646;26.980;2022-08-06T07:42:22;7.15;;;5.97;;
12798;SDS011;19250;42.646;26.980;2022-08-06T07:44:51;7.03;;;5.65;;
12798;SDS011;19250;42.646;26.980;2022-08-06T07:47:22;6.18;;;5.63;;
12798;SDS011;19250;42.646;26.980;2022-08-06T07:49:55;6.55;;;5.95;;
12798;SDS011;19250;42.646;26.980;2022-08-06T07:52:25;6.72;;;6.13;;
12798;SDS011;19250;42.646;26.980;2022-08-06T07:54:53;6.40;;;5.90;;
12798;SDS011;19250;42.646;26.980;2022-08-06T07:57:21;6.53;;;5.93;;
12798;SDS011;19250;42.646;26.980;2022-08-06T07:59:49;6.72;;;5.70;;
12798;SDS011;19250;42.646;26.980;2022-08-06T08:02:18;6.40;;;5.80;;
12798;SDS011;19250;42.646;26.980;2022-08-06T08:04:46;7.60;;;6.07;;
12798;SDS011;19250;42.646;26.980;2022-08-06T08:07:32;6.57;;;5.88;;
12798;SDS011;19250;42.646;26.980;2022-08-06T08:10:00;10.65;;;6.05;;
12798;SDS011;19250;42.646;26.980;2022-08-06T08:12:28;6.70;;;6.00;;
12798;SDS011;19250;42.646;26.980;2022-08-06T08:14:57;6.50;;;5.85;;
12798;SDS011;19250;42.646;26.980;2022-08-06T08:17:25;6.75;;;6.00;;
12798;SDS011;19250;42.646;26.980;2022-08-06T08:19:52;6.10;;;5.60;;
12798;SDS011;19250;42.646;26.980;2022-08-06T08:22:20;7.85;;;6.07;;
12798;SDS011;19250;42.646;26.980;2022-08-06T08:24:49;6.03;;;5.50;;
12798;SDS011;19250;42.646;26.980;2022-08-06T08:27:16;5.95;;;5.45;;
12798;SDS011;19250;42.646;26.980;2022-08-06T08:29:45;5.90;;;5.30;;
12798;SDS011;19250;42.646;26.980;2022-08-06T08:32:12;6.40;;;5.70;;
12798;SDS011;19250;42.646;26.980;2022-08-06T08:34:40;6.40;;;5.90;;
12798;SDS011;19250;42.646;26.980;2022-08-06T08:37:07;7.10;;;5.85;;
12798;SDS011;19250;42.646;26.980;2022-08-06T08:39:34;7.30;;;5.60;;
12798;SDS011;19250;42.646;26.980;2022-08-06T08:42:04;5.80;;;5.40;;
12798;SDS011;19250;42.646;26.980;2022-08-06T08:44:36;6.00;;;5.50;;
12798;SDS011;19250;42.646;26.980;2022-08-06T08:47:05;5.70;;;5.30;;
12798;SDS011;19250;42.646;26.980;2022-08-06T08:49:36;6.00;;;5.50;;
12798;SDS011;19250;42.646;26.980;2022-08-06T08:52:06;6.22;;;5.65;;
12798;SDS011;19250;42.646;26.980;2022-08-06T08:54:35;6.15;;;5.60;;
12798;SDS011;19250;42.646;26.980;2022-08-06T08:57:07;6.10;;;5.60;;
12798;SDS011;19250;42.646;26.980;2022-08-06T08:59:35;5.95;;;5.35;;
12798;SDS011;19250;42.646;26.980;2022-08-06T09:02:06;6.97;;;5.22;;
12798;SDS011;19250;42.646;26.980;2022-08-06T09:04:36;6.13;;;5.53;;
12798;SDS011;19250;42.646;26.980;2022-08-06T09:07:04;7.28;;;6.70;;
12798;SDS011;19250;42.646;26.980;2022-08-06T09:09:32;6.90;;;6.20;;
12798;SDS011;19250;42.646;26.980;2022-08-06T09:12:00;5.97;;;5.43;;
12798;SDS011;19250;42.646;26.980;2022-08-06T09:14:29;5.72;;;5.32;;
12798;SDS011;19250;42.646;26.980;2022-08-06T09:16:57;6.03;;;5.57;;
12798;SDS011;19250;42.646;26.980;2022-08-06T09:19:25;6.20;;;5.57;;
12798;SDS011;19250;42.646;26.980;2022-08-06T09:21:54;5.72;;;5.22;;
12798;SDS011;19250;42.646;26.980;2022-08-06T09:24:21;6.05;;;5.55;;
12798;SDS011;19250;42.646;26.980;2022-08-06T09:27:06;5.90;;;5.50;;
12798;SDS011;19250;42.646;26.980;2022-08-06T09:29:36;6.03;;;5.50;;
12798;SDS011;19250;42.646;26.980;2022-08-06T09:32:13;6.25;;;5.65;;
12798;SDS011;19250;42.646;26.980;2022-08-06T09:35:15;5.80;;;5.30;;
12798;SDS011;19250;42.646;26.980;2022-08-06T09:37:46;5.90;;;5.40;;
12798;SDS011;19250;42.646;26.980;2022-08-06T09:40:14;5.78;;;5.30;;
12798;SDS011;19250;42.646;26.980;2022-08-06T09:42:43;6.30;;;5.30;;
12798;SDS011;19250;42.646;26.980;2022-08-06T09:45:15;6.18;;;5.68;;
12798;SDS011;19250;42.646;26.980;2022-08-06T09:47:45;6.10;;;5.60;;
12798;SDS011;19250;42.646;26.980;2022-08-06T09:50:13;6.95;;;5.80;;
12798;SDS011;19250;42.646;26.980;2022-08-06T09:52:41;6.10;;;5.60;;
12798;SDS011;19250;42.646;26.980;2022-08-06T09:55:08;6.10;;;5.70;;
12798;SDS011;19250;42.646;26.980;2022-08-06T09:57:55;6.28;;;5.78;;
12798;SDS011;19250;42.646;26.980;2022-08-06T10:00:27;6.18;;;5.72;;
12798;SDS011;19250;42.646;26.980;2022-08-06T10:02:55;6.40;;;5.80;;
12798;SDS011;19250;42.646;26.980;2022-08-06T10:05:23;6.47;;;5.97;;
12798;SDS011;19250;42.646;26.980;2022-08-06T10:08:03;6.00;;;5.50;;
12798;SDS011;19250;42.646;26.980;2022-08-06T10:10:39;6.40;;;5.90;;
12798;SDS011;19250;42.646;26.980;2022-08-06T10:13:14;6.30;;;5.70;;
12798;SDS011;19250;42.646;26.980;2022-08-06T10:15:45;6.33;;;5.80;;
12798;SDS011;19250;42.646;26.980;2022-08-06T10:18:28;6.27;;;5.70;;
12798;SDS011;19250;42.646;26.980;2022-08-06T10:21:01;7.22;;;6.72;;
12798;SDS011;19250;42.646;26.980;2022-08-06T10:23:31;6.70;;;6.10;;
12798;SDS011;19250;42.646;26.980;2022-08-06T10:26:00;6.70;;;6.20;;
12798;SDS011;19250;42.646;26.980;2022-08-06T10:28:31;6.95;;;6.35;;
12798;SDS011;19250;42.646;26.980;2022-08-06T10:31:02;6.80;;;6.30;;
12798;SDS011;19250;42.646;26.980;2022-08-06T10:33:33;6.53;;;6.03;;
12798;SDS011;19250;42.646;26.980;2022-08-06T10:36:08;7.82;;;6.43;;
12798;SDS011;19250;42.646;26.980;2022-08-06T10:38:40;6.70;;;6.10;;
12798;SDS011;19250;42.646;26.980;2022-08-06T10:41:10;7.40;;;6.60;;
12798;SDS011;19250;42.646;26.980;2022-08-06T10:43:39;6.85;;;6.22;;
12798;SDS011;19250;42.646;26.980;2022-08-06T10:46:09;6.75;;;6.18;;
12798;SDS011;19250;42.646;26.980;2022-08-06T10:48:39;12.07;;;11.00;;
12798;SDS011;19250;42.646;26.980;2022-08-06T10:51:08;21.35;;;19.58;;
12798;SDS011;19250;42.646;26.980;2022-08-06T10:53:37;9.35;;;8.55;;
12798;SDS011;19250;42.646;26.980;2022-08-06T10:56:06;10.05;;;9.18;;
12798;SDS011;19250;42.646;26.980;2022-08-06T10:58:36;9.63;;;8.90;;
12798;SDS011;19250;42.646;26.980;2022-08-06T11:01:05;7.17;;;6.50;;
12798;SDS011;19250;42.646;26.980;2022-08-06T11:06:39;6.60;;;6.00;;
12798;SDS011;19250;42.646;26.980;2022-08-06T11:09:23;7.65;;;6.85;;
12798;SDS011;19250;42.646;26.980;2022-08-06T11:12:14;7.05;;;6.53;;
12798;SDS011;19250;42.646;26.980;2022-08-06T11:14:50;6.50;;;6.00;;
12798;SDS011;19250;42.646;26.980;2022-08-06T11:17:19;9.00;;;8.10;;
12798;SDS011;19250;42.646;26.980;2022-08-06T11:19:48;7.20;;;6.65;;
12798;SDS011;19250;42.646;26.980;2022-08-06T11:24:58;7.55;;;6.85;;
12798;SDS011;19250;42.646;26.980;2022-08-06T11:30:16;7.38;;;6.75;;
12798;SDS011;19250;42.646;26.980;2022-08-06T11:32:46;7.43;;;6.72;;
12798;SDS011;19250;42.646;26.980;2022-08-06T11:41:42;7.00;;;6.50;;
12798;SDS011;19250;42.646;26.980;2022-08-06T11:44:11;6.80;;;6.18;;
12798;SDS011;19250;42.646;26.980;2022-08-06T11:46:41;7.10;;;6.50;;
12798;SDS011;19250;42.646;26.980;2022-08-06T11:49:15;6.80;;;6.20;;
12798;SDS011;19250;42.646;26.980;2022-08-06T11:51:45;6.90;;;6.35;;
12798;SDS011;19250;42.646;26.980;2022-08-06T11:54:15;6.80;;;6.20;;
12798;SDS011;19250;42.646;26.980;2022-08-06T12:00:05;7.10;;;6.40;;
12798;SDS011;19250;42.646;26.980;2022-08-06T12:02:54;7.03;;;6.43;;
12798;SDS011;19250;42.646;26.980;2022-08-06T12:05:39;7.00;;;6.50;;
12798;SDS011;19250;42.646;26.980;2022-08-06T12:08:18;7.72;;;6.05;;
12798;SDS011;19250;42.646;26.980;2022-08-06T12:13:53;7.00;;;6.40;;
12798;SDS011;19250;42.646;26.980;2022-08-06T12:16:28;7.35;;;6.78;;
12798;SDS011;19250;42.646;26.980;2022-08-06T12:19:03;7.10;;;6.50;;
12798;SDS011;19250;42.646;26.980;2022-08-06T12:21:34;7.10;;;6.50;;
12798;SDS011;19250;42.646;26.980;2022-08-06T12:24:04;7.95;;;7.25;;
12798;SDS011;19250;42.646;26.980;2022-08-06T12:26:33;7.45;;;6.85;;
12798;SDS011;19250;42.646;26.980;2022-08-06T12:29:02;8.00;;;7.28;;
12798;SDS011;19250;42.646;26.980;2022-08-06T12:31:31;6.97;;;6.38;;
12798;SDS011;19250;42.646;26.980;2022-08-06T12:34:00;13.77;;;12.50;;
12798;SDS011;19250;42.646;26.980;2022-08-06T12:36:28;26.15;;;23.40;;
12798;SDS011;19250;42.646;26.980;2022-08-06T12:38:58;7.43;;;6.85;;
12798;SDS011;19250;42.646;26.980;2022-08-06T12:41:39;7.47;;;6.78;;
12798;SDS011;19250;42.646;26.980;2022-08-06T12:44:08;7.20;;;6.70;;
12798;SDS011;19250;42.646;26.980;2022-08-06T12:46:36;10.88;;;9.88;;
12798;SDS011;19250;42.646;26.980;2022-08-06T12:49:04;7.90;;;7.18;;
12798;SDS011;19250;42.646;26.980;2022-08-06T12:51:32;8.60;;;7.78;;
12798;SDS011;19250;42.646;26.980;2022-08-06T12:54:02;8.10;;;7.33;;
12798;SDS011;19250;42.646;26.980;2022-08-06T12:56:32;8.70;;;7.93;;
12798;SDS011;19250;42.646;26.980;2022-08-06T12:59:05;19.97;;;17.83;;
12798;SDS011;19250;42.646;26.980;2022-08-06T13:01:35;14.75;;;13.43;;
12798;SDS011;19250;42.646;26.980;2022-08-06T13:04:04;9.88;;;9.15;;
12798;SDS011;19250;42.646;26.980;2022-08-06T13:06:35;7.45;;;6.72;;
12798;SDS011;19250;42.646;26.980;2022-08-06T13:09:06;7.60;;;7.00;;
12798;SDS011;19250;42.646;26.980;2022-08-06T13:11:34;7.32;;;6.22;;
12798;SDS011;19250;42.646;26.980;2022-08-06T13:14:08;7.03;;;6.43;;
12798;SDS011;19250;42.646;26.980;2022-08-06T13:16:37;7.28;;;6.57;;
12798;SDS011;19250;42.646;26.980;2022-08-06T13:19:07;6.77;;;6.20;;
12798;SDS011;19250;42.646;26.980;2022-08-06T13:21:36;7.82;;;7.13;;
12798;SDS011;19250;42.646;26.980;2022-08-06T13:24:06;7.93;;;7.10;;
12798;SDS011;19250;42.646;26.980;2022-08-06T13:26:34;7.85;;;7.05;;
12798;SDS011;19250;42.646;26.980;2022-08-06T13:29:14;7.53;;;6.90;;
12798;SDS011;19250;42.646;26.980;2022-08-06T13:31:44;7.95;;;7.15;;
12798;SDS011;19250;42.646;26.980;2022-08-06T13:34:12;8.30;;;6.88;;
12798;SDS011;19250;42.646;26.980;2022-08-06T13:36:42;8.10;;;7.40;;
12798;SDS011;19250;42.646;26.980;2022-08-06T13:39:19;7.70;;;6.90;;
12798;SDS011;19250;42.646;26.980;2022-08-06T13:41:59;8.43;;;7.63;;
12798;SDS011;19250;42.646;26.980;2022-08-06T13:44:28;8.18;;;7.40;;
12798;SDS011;19250;42.646;26.980;2022-08-06T13:46:56;8.70;;;7.90;;
12798;SDS011;19250;42.646;26.980;2022-08-06T13:49:24;8.18;;;7.38;;
12798;SDS011;19250;42.646;26.980;2022-08-06T13:51:52;7.97;;;7.28;;
12798;SDS011;19250;42.646;26.980;2022-08-06T13:54:21;8.20;;;7.50;;
12798;SDS011;19250;42.646;26.980;2022-08-06T13:56:48;8.05;;;7.40;;
12798;SDS011;19250;42.646;26.980;2022-08-06T13:59:16;8.20;;;7.55;;
12798;SDS011;19250;42.646;26.980;2022-08-06T14:01:44;7.95;;;7.35;;
12798;SDS011;19250;42.646;26.980;2022-08-06T14:04:15;9.35;;;7.63;;
12798;SDS011;19250;42.646;26.980;2022-08-06T14:06:47;8.25;;;7.65;;
12798;SDS011;19250;42.646;26.980;2022-08-06T14:09:15;8.77;;;8.05;;
12798;SDS011;19250;42.646;26.980;2022-08-06T14:11:45;8.45;;;7.85;;
12798;SDS011;19250;42.646;26.980;2022-08-06T14:14:12;8.27;;;7.57;;
12798;SDS011;19250;42.646;26.980;2022-08-06T14:16:40;7.90;;;7.20;;
12798;SDS011;19250;42.646;26.980;2022-08-06T14:19:07;8.90;;;8.10;;
12798;SDS011;19250;42.646;26.980;2022-08-06T14:21:34;8.75;;;7.50;;
12798;SDS011;19250;42.646;26.980;2022-08-06T14:24:01;8.20;;;7.50;;
12798;SDS011;19250;42.646;26.980;2022-08-06T14:26:29;8.10;;;7.40;;
12798;SDS011;19250;42.646;26.980;2022-08-06T14:28:58;8.30;;;7.60;;
12798;SDS011;19250;42.646;26.980;2022-08-06T14:31:26;8.10;;;7.47;;
12798;SDS011;19250;42.646;26.980;2022-08-06T14:33:53;7.80;;;7.00;;
12798;SDS011;19250;42.646;26.980;2022-08-06T14:36:21;8.60;;;7.03;;
12798;SDS011;19250;42.646;26.980;2022-08-06T14:38:48;8.48;;;7.78;;
12798;SDS011;19250;42.646;26.980;2022-08-06T14:41:15;7.30;;;6.70;;
12798;SDS011;19250;42.646;26.980;2022-08-06T14:44:01;7.80;;;7.10;;
12798;SDS011;19250;42.646;26.980;2022-08-06T14:46:46;7.17;;;6.57;;
12798;SDS011;19250;42.646;26.980;2022-08-06T14:49:13;7.73;;;7.13;;
12798;SDS011;19250;42.646;26.980;2022-08-06T14:51:40;7.68;;;6.90;;
12798;SDS011;19250;42.646;26.980;2022-08-06T14:54:07;7.72;;;7.03;;
12798;SDS011;19250;42.646;26.980;2022-08-06T14:56:35;7.50;;;6.90;;
12798;SDS011;19250;42.646;26.980;2022-08-06T14:59:04;7.50;;;6.85;;
12798;SDS011;19250;42.646;26.980;2022-08-06T15:01:31;9.02;;;8.27;;
12798;SDS011;19250;42.646;26.980;2022-08-06T15:03:59;8.15;;;7.50;;
12798;SDS011;19250;42.646;26.980;2022-08-06T15:06:31;8.27;;;7.57;;
12798;SDS011;19250;42.646;26.980;2022-08-06T15:09:00;8.35;;;7.65;;
12798;SDS011;19250;42.646;26.980;2022-08-06T15:11:28;7.90;;;7.22;;